Franklin, Michigan
Current Conditions -  °F | °C
As of 5:14 PM on Sunday 25 Jan 2015 (Local Time) from KVLL Reporting Station
Scattered Clouds Scattered Clouds  
Wind Chill: 10°   Ceiling: Unl
Heat Index: 23°   Visibility: 10mi
Dew Point:   Wind: 15mph
Humidity: 53%   Direction: 40°NE
Pressure: 29.96"   Gusts: NA
Location:  42.52°N, 83.31°W
Report Text: KVLL 252214Z AUTO 04013KT 10SM SCT120 M05/M13 A2996 RMK AO2 T10511133
Loading
Personal Weather Stations






























Interactive Weather Map New forecast layout! Learn more

10-Day Weather Forecast

Advertisements
Track Severe Weather on mobile